sensor_id;sensor_type;location;lat;lon;timestamp;P1;durP1;ratioP1;P2;durP2;ratioP2
56401;SDS011;42299;35.160;26.100;2023-10-08T00:02:59;24.30;;;14.80;;
56401;SDS011;42299;35.160;26.100;2023-10-08T00:13:26;25.83;;;13.80;;
56401;SDS011;42299;35.160;26.100;2023-10-08T00:23:51;26.38;;;14.32;;
56401;SDS011;42299;35.160;26.100;2023-10-08T00:34:15;26.15;;;14.18;;
56401;SDS011;42299;35.160;26.100;2023-10-08T00:44:42;25.23;;;14.30;;
56401;SDS011;42299;35.160;26.100;2023-10-08T00:55:11;26.73;;;15.00;;
56401;SDS011;42299;35.160;26.100;2023-10-08T01:05:47;26.20;;;14.98;;
56401;SDS011;42299;35.160;26.100;2023-10-08T01:16:09;24.92;;;14.25;;
56401;SDS011;42299;35.160;26.100;2023-10-08T01:26:34;27.30;;;15.02;;
56401;SDS011;42299;35.160;26.100;2023-10-08T01:36:59;23.85;;;13.65;;
56401;SDS011;42299;35.160;26.100;2023-10-08T01:47:30;26.35;;;15.18;;
56401;SDS011;42299;35.160;26.100;2023-10-08T01:57:53;30.75;;;15.77;;
56401;SDS011;42299;35.160;26.100;2023-10-08T02:08:18;27.48;;;14.88;;
56401;SDS011;42299;35.160;26.100;2023-10-08T02:18:41;23.08;;;13.27;;
56401;SDS011;42299;35.160;26.100;2023-10-08T02:29:06;27.50;;;14.15;;
56401;SDS011;42299;35.160;26.100;2023-10-08T02:39:32;30.35;;;16.13;;
56401;SDS011;42299;35.160;26.100;2023-10-08T02:49:57;23.55;;;14.10;;
56401;SDS011;42299;35.160;26.100;2023-10-08T03:00:20;30.55;;;14.50;;
56401;SDS011;42299;35.160;26.100;2023-10-08T03:10:52;26.30;;;15.43;;
56401;SDS011;42299;35.160;26.100;2023-10-08T03:21:16;24.33;;;13.50;;
56401;SDS011;42299;35.160;26.100;2023-10-08T03:31:44;26.20;;;13.80;;
56401;SDS011;42299;35.160;26.100;2023-10-08T03:42:13;26.25;;;13.50;;
56401;SDS011;42299;35.160;26.100;2023-10-08T03:52:42;27.70;;;13.13;;
56401;SDS011;42299;35.160;26.100;2023-10-08T04:03:05;24.95;;;12.75;;
56401;SDS011;42299;35.160;26.100;2023-10-08T04:13:33;26.83;;;10.52;;
56401;SDS011;42299;35.160;26.100;2023-10-08T04:24:07;21.52;;;11.45;;
56401;SDS011;42299;35.160;26.100;2023-10-08T04:34:32;26.90;;;10.65;;
56401;SDS011;42299;35.160;26.100;2023-10-08T04:44:55;21.67;;;11.50;;
56401;SDS011;42299;35.160;26.100;2023-10-08T04:55:20;20.00;;;9.48;;
56401;SDS011;42299;35.160;26.100;2023-10-08T05:05:49;20.60;;;10.55;;
56401;SDS011;42299;35.160;26.100;2023-10-08T05:16:27;23.08;;;10.15;;
56401;SDS011;42299;35.160;26.100;2023-10-08T05:27:04;20.77;;;9.40;;
56401;SDS011;42299;35.160;26.100;2023-10-08T05:38:00;18.55;;;8.95;;
56401;SDS011;42299;35.160;26.100;2023-10-08T05:48:34;23.88;;;9.57;;
56401;SDS011;42299;35.160;26.100;2023-10-08T05:59:07;16.50;;;9.15;;
56401;SDS011;42299;35.160;26.100;2023-10-08T06:09:47;18.35;;;8.55;;
56401;SDS011;42299;35.160;26.100;2023-10-08T06:20:25;16.27;;;7.13;;
56401;SDS011;42299;35.160;26.100;2023-10-08T06:30:48;14.05;;;6.53;;
56401;SDS011;42299;35.160;26.100;2023-10-08T06:41:15;18.17;;;7.07;;
56401;SDS011;42299;35.160;26.100;2023-10-08T06:51:40;17.77;;;7.25;;
56401;SDS011;42299;35.160;26.100;2023-10-08T07:02:06;13.73;;;5.78;;
56401;SDS011;42299;35.160;26.100;2023-10-08T07:12:30;15.57;;;6.13;;
56401;SDS011;42299;35.160;26.100;2023-10-08T07:22:57;13.48;;;5.38;;
56401;SDS011;42299;35.160;26.100;2023-10-08T07:33:23;12.98;;;5.20;;
56401;SDS011;42299;35.160;26.100;2023-10-08T07:43:58;12.20;;;4.78;;
56401;SDS011;42299;35.160;26.100;2023-10-08T07:54:21;12.00;;;4.68;;
56401;SDS011;42299;35.160;26.100;2023-10-08T08:04:50;11.90;;;4.88;;
56401;SDS011;42299;35.160;26.100;2023-10-08T08:15:13;14.05;;;4.97;;
56401;SDS011;42299;35.160;26.100;2023-10-08T08:25:38;14.13;;;4.70;;
56401;SDS011;42299;35.160;26.100;2023-10-08T08:36:26;12.40;;;4.72;;
56401;SDS011;42299;35.160;26.100;2023-10-08T08:46:52;10.85;;;4.88;;
56401;SDS011;42299;35.160;26.100;2023-10-08T08:57:15;11.00;;;4.63;;
56401;SDS011;42299;35.160;26.100;2023-10-08T09:07:39;13.82;;;4.72;;
56401;SDS011;42299;35.160;26.100;2023-10-08T09:18:15;9.68;;;4.20;;
56401;SDS011;42299;35.160;26.100;2023-10-08T09:28:40;12.40;;;3.88;;
56401;SDS011;42299;35.160;26.100;2023-10-08T09:39:07;11.55;;;4.47;;
56401;SDS011;42299;35.160;26.100;2023-10-08T09:49:56;10.73;;;4.03;;
56401;SDS011;42299;35.160;26.100;2023-10-08T10:00:28;12.18;;;4.85;;
56401;SDS011;42299;35.160;26.100;2023-10-08T10:10:59;9.68;;;3.78;;
56401;SDS011;42299;35.160;26.100;2023-10-08T10:21:26;10.70;;;4.13;;
56401;SDS011;42299;35.160;26.100;2023-10-08T10:31:53;11.02;;;4.65;;
56401;SDS011;42299;35.160;26.100;2023-10-08T10:42:17;10.82;;;4.50;;
56401;SDS011;42299;35.160;26.100;2023-10-08T10:52:45;12.55;;;5.10;;
56401;SDS011;42299;35.160;26.100;2023-10-08T11:03:12;9.82;;;4.05;;
56401;SDS011;42299;35.160;26.100;2023-10-08T11:13:46;13.90;;;4.65;;
56401;SDS011;42299;35.160;26.100;2023-10-08T11:24:14;12.02;;;4.50;;
56401;SDS011;42299;35.160;26.100;2023-10-08T11:34:54;15.20;;;4.82;;
56401;SDS011;42299;35.160;26.100;2023-10-08T11:45:20;10.88;;;5.05;;
56401;SDS011;42299;35.160;26.100;2023-10-08T11:55:49;12.77;;;5.00;;
56401;SDS011;42299;35.160;26.100;2023-10-08T12:06:17;11.73;;;4.70;;
56401;SDS011;42299;35.160;26.100;2023-10-08T12:16:45;14.87;;;5.13;;
56401;SDS011;42299;35.160;26.100;2023-10-08T12:27:08;14.40;;;4.80;;
56401;SDS011;42299;35.160;26.100;2023-10-08T12:37:33;14.77;;;5.60;;
56401;SDS011;42299;35.160;26.100;2023-10-08T12:47:57;12.63;;;4.90;;
56401;SDS011;42299;35.160;26.100;2023-10-08T12:58:24;15.73;;;5.22;;
56401;SDS011;42299;35.160;26.100;2023-10-08T13:08:50;14.80;;;5.57;;
56401;SDS011;42299;35.160;26.100;2023-10-08T13:19:15;11.05;;;4.65;;
56401;SDS011;42299;35.160;26.100;2023-10-08T13:29:39;11.82;;;4.65;;
56401;SDS011;42299;35.160;26.100;2023-10-08T13:40:07;14.90;;;5.18;;
56401;SDS011;42299;35.160;26.100;2023-10-08T13:50:30;13.20;;;4.88;;
56401;SDS011;42299;35.160;26.100;2023-10-08T14:00:55;12.73;;;4.78;;
56401;SDS011;42299;35.160;26.100;2023-10-08T14:11:20;14.77;;;5.70;;
56401;SDS011;42299;35.160;26.100;2023-10-08T14:21:46;14.88;;;5.30;;
56401;SDS011;42299;35.160;26.100;2023-10-08T14:32:14;12.05;;;5.18;;
56401;SDS011;42299;35.160;26.100;2023-10-08T14:42:38;12.35;;;5.25;;
56401;SDS011;42299;35.160;26.100;2023-10-08T14:53:23;14.38;;;5.45;;
56401;SDS011;42299;35.160;26.100;2023-10-08T15:03:51;17.52;;;5.30;;
56401;SDS011;42299;35.160;26.100;2023-10-08T15:14:14;14.68;;;5.65;;
56401;SDS011;42299;35.160;26.100;2023-10-08T15:24:38;12.25;;;5.82;;
56401;SDS011;42299;35.160;26.100;2023-10-08T15:35:02;10.60;;;6.00;;
56401;SDS011;42299;35.160;26.100;2023-10-08T15:45:28;16.13;;;5.90;;
56401;SDS011;42299;35.160;26.100;2023-10-08T15:55:52;12.48;;;5.90;;
56401;SDS011;42299;35.160;26.100;2023-10-08T16:06:16;13.75;;;6.20;;
56401;SDS011;42299;35.160;26.100;2023-10-08T16:16:39;14.32;;;6.22;;
56401;SDS011;42299;35.160;26.100;2023-10-08T16:27:04;14.70;;;6.85;;
56401;SDS011;42299;35.160;26.100;2023-10-08T16:37:27;12.75;;;6.45;;
56401;SDS011;42299;35.160;26.100;2023-10-08T16:47:52;12.25;;;6.05;;
56401;SDS011;42299;35.160;26.100;2023-10-08T16:58:18;12.03;;;6.17;;
56401;SDS011;42299;35.160;26.100;2023-10-08T17:08:42;11.60;;;6.28;;
56401;SDS011;42299;35.160;26.100;2023-10-08T17:19:05;14.98;;;6.88;;
56401;SDS011;42299;35.160;26.100;2023-10-08T17:29:29;15.90;;;7.05;;
56401;SDS011;42299;35.160;26.100;2023-10-08T17:39:51;17.08;;;8.52;;
56401;SDS011;42299;35.160;26.100;2023-10-08T17:50:16;15.43;;;7.75;;
56401;SDS011;42299;35.160;26.100;2023-10-08T18:00:40;14.13;;;6.97;;
56401;SDS011;42299;35.160;26.100;2023-10-08T18:11:05;14.93;;;7.55;;
56401;SDS011;42299;35.160;26.100;2023-10-08T18:21:28;16.20;;;8.35;;
56401;SDS011;42299;35.160;26.100;2023-10-08T18:31:53;15.13;;;7.57;;
56401;SDS011;42299;35.160;26.100;2023-10-08T18:42:15;14.93;;;7.97;;
56401;SDS011;42299;35.160;26.100;2023-10-08T18:52:41;13.60;;;7.60;;
56401;SDS011;42299;35.160;26.100;2023-10-08T19:03:04;15.77;;;8.02;;
56401;SDS011;42299;35.160;26.100;2023-10-08T19:13:42;15.60;;;7.85;;
56401;SDS011;42299;35.160;26.100;2023-10-08T19:24:05;14.30;;;7.50;;
56401;SDS011;42299;35.160;26.100;2023-10-08T19:34:30;15.82;;;7.72;;
56401;SDS011;42299;35.160;26.100;2023-10-08T19:44:53;12.75;;;7.43;;
56401;SDS011;42299;35.160;26.100;2023-10-08T19:55:20;15.38;;;8.07;;
56401;SDS011;42299;35.160;26.100;2023-10-08T20:05:43;13.30;;;7.68;;
56401;SDS011;42299;35.160;26.100;2023-10-08T20:16:09;16.67;;;8.52;;
56401;SDS011;42299;35.160;26.100;2023-10-08T20:26:32;12.13;;;7.65;;
56401;SDS011;42299;35.160;26.100;2023-10-08T20:36:56;15.90;;;7.63;;
56401;SDS011;42299;35.160;26.100;2023-10-08T20:47:20;14.73;;;8.02;;
56401;SDS011;42299;35.160;26.100;2023-10-08T20:57:45;15.20;;;8.32;;
56401;SDS011;42299;35.160;26.100;2023-10-08T21:08:10;14.45;;;7.65;;
56401;SDS011;42299;35.160;26.100;2023-10-08T21:18:35;13.60;;;7.60;;
56401;SDS011;42299;35.160;26.100;2023-10-08T21:28:57;16.73;;;8.30;;
56401;SDS011;42299;35.160;26.100;2023-10-08T21:39:21;13.65;;;7.63;;
56401;SDS011;42299;35.160;26.100;2023-10-08T21:49:44;14.60;;;7.57;;
56401;SDS011;42299;35.160;26.100;2023-10-08T22:00:10;16.38;;;7.63;;
56401;SDS011;42299;35.160;26.100;2023-10-08T22:10:44;16.50;;;7.65;;
56401;SDS011;42299;35.160;26.100;2023-10-08T22:21:09;13.35;;;7.30;;
56401;SDS011;42299;35.160;26.100;2023-10-08T22:31:34;16.27;;;8.25;;
56401;SDS011;42299;35.160;26.100;2023-10-08T22:42:00;14.80;;;7.75;;
56401;SDS011;42299;35.160;26.100;2023-10-08T22:52:23;15.68;;;7.63;;
56401;SDS011;42299;35.160;26.100;2023-10-08T23:02:52;14.10;;;7.82;;
56401;SDS011;42299;35.160;26.100;2023-10-08T23:13:16;14.43;;;8.40;;
56401;SDS011;42299;35.160;26.100;2023-10-08T23:23:42;14.45;;;7.95;;
56401;SDS011;42299;35.160;26.100;2023-10-08T23:34:06;14.80;;;8.40;;
56401;SDS011;42299;35.160;26.100;2023-10-08T23:44:32;13.10;;;8.02;;
56401;SDS011;42299;35.160;26.100;2023-10-08T23:54:55;13.23;;;8.68;;
